Time;durP1;ratioP1;P1;durP2;ratioP2;P2;SDS_P1;SDS_P2;PMS_P1;PMS_P2;Temp;Humidity;BMP_temperature;BMP_pressure;BME280_temperature;BME280_humidity;BME280_pressure;Samples;Min_cycle;Max_cycle;Signal;HPM_P1;HPM_P2
2021/06/18 06:49:56;;;;;;;3.90;1.00;;;;;;;;;;5712202;22;20419;-44
2021/06/18 06:52:22;;;;;;;2.67;1.20;;;;;;;;;;5024621;28;20052;-43
2021/06/18 06:54:49;;;;;;;1.58;0.77;;;;;;;;;;5018644;28;20104;-41
2021/06/18 06:57:16;;;;;;;1.90;1.10;;;;;;;;;;5027846;28;20060;-42
2021/06/18 06:59:42;;;;;;;2.40;0.88;;;;;;;;;;5031516;28;20025;-42
2021/06/18 07:02:11;;;;;;;2.25;0.93;;;;;;;;;;5048501;28;20025;-41
2021/06/18 07:04:37;;;;;;;3.35;0.82;;;;;;;;;;5050168;28;20033;-41
2021/06/18 07:07:04;;;;;;;1.93;0.83;;;;;;;;;;5032636;28;20132;-42
2021/06/18 07:09:32;;;;;;;3.43;1.00;;;;;;;;;;5050794;28;20503;-42
2021/06/18 07:11:59;;;;;;;2.03;0.90;;;;;;;;;;5032048;28;20754;-41
2021/06/18 07:14:25;;;;;;;2.87;1.10;;;;;;;;;;5032700;28;20024;-43
2021/06/18 07:16:53;;;;;;;1.60;0.97;;;;;;;;;;5037245;28;20020;-43
2021/06/18 07:19:22;;;;;;;2.67;1.05;;;;;;;;;;5032541;28;20025;-43
2021/06/18 07:21:48;;;;;;;1.85;0.70;;;;;;;;;;5032222;28;20040;-41
2021/06/18 07:24:15;;;;;;;2.13;0.90;;;;;;;;;;5050287;28;20481;-40
2021/06/18 07:26:44;;;;;;;2.15;0.80;;;;;;;;;;5016311;28;20071;-44
2021/06/18 07:29:13;;;;;;;1.70;0.80;;;;;;;;;;5031864;28;20026;-43
2021/06/18 07:31:39;;;;;;;1.60;0.80;;;;;;;;;;5037142;28;20044;-43
2021/06/18 07:34:06;;;;;;;1.20;0.82;;;;;;;;;;5049507;28;20105;-46
2021/06/18 07:36:32;;;;;;;1.52;0.80;;;;;;;;;;5048694;28;20029;-43
2021/06/18 07:38:59;;;;;;;2.15;0.80;;;;;;;;;;5033157;28;20021;-51
2021/06/18 07:41:25;;;;;;;3.90;0.80;;;;;;;;;;5023857;28;20124;-43
2021/06/18 07:43:51;;;;;;;2.33;1.03;;;;;;;;;;5042854;28;20556;-51
2021/06/18 07:46:20;;;;;;;2.42;0.70;;;;;;;;;;5030017;28;20253;-44
2021/06/18 07:48:46;;;;;;;2.75;0.80;;;;;;;;;;5038056;28;20106;-47
2021/06/18 07:51:12;;;;;;;1.88;0.65;;;;;;;;;;5024944;28;20049;-50
2021/06/18 07:53:38;;;;;;;1.33;0.57;;;;;;;;;;5043288;28;20519;-44
2021/06/18 07:56:07;;;;;;;1.17;0.60;;;;;;;;;;5047141;28;20054;-45
2021/06/18 07:58:33;;;;;;;1.40;0.73;;;;;;;;;;5015475;28;20030;-43
2021/06/18 08:00:59;;;;;;;1.87;0.53;;;;;;;;;;5043654;28;20045;-45
2021/06/18 08:03:25;;;;;;;1.48;0.80;;;;;;;;;;5035969;28;20032;-42
2021/06/18 08:05:51;;;;;;;0.93;0.60;;;;;;;;;;5037884;28;20037;-42
2021/06/18 08:08:20;;;;;;;1.07;0.60;;;;;;;;;;5048201;28;20081;-43
2021/06/18 08:10:46;;;;;;;1.08;0.50;;;;;;;;;;5035180;28;20557;-44
2021/06/18 08:13:12;;;;;;;2.65;0.60;;;;;;;;;;5034074;28;20105;-45
2021/06/18 08:15:39;;;;;;;1.05;0.60;;;;;;;;;;5020864;28;20025;-44
2021/06/18 08:18:05;;;;;;;0.88;0.55;;;;;;;;;;5042239;28;20102;-43
2021/06/18 08:20:31;;;;;;;0.75;0.40;;;;;;;;;;5028134;28;20104;-45
2021/06/18 08:22:58;;;;;;;2.07;0.67;;;;;;;;;;5027885;28;20036;-45
2021/06/18 08:25:24;;;;;;;0.80;0.50;;;;;;;;;;5048900;28;20370;-45
2021/06/18 08:27:50;;;;;;;1.00;0.60;;;;;;;;;;5048140;28;20028;-45
2021/06/18 08:30:17;;;;;;;4.28;0.77;;;;;;;;;;5045146;28;20032;-44
2021/06/18 08:32:43;;;;;;;1.88;0.80;;;;;;;;;;5029711;28;20369;-46
2021/06/18 08:35:09;;;;;;;1.20;0.70;;;;;;;;;;5042480;28;20026;-47
2021/06/18 08:37:35;;;;;;;1.17;0.60;;;;;;;;;;5029074;28;20108;-45
2021/06/18 08:40:02;;;;;;;1.35;0.65;;;;;;;;;;5042374;28;20041;-46
2021/06/18 08:42:28;;;;;;;2.55;0.98;;;;;;;;;;5022340;28;20318;-46
2021/06/18 08:44:55;;;;;;;2.17;0.80;;;;;;;;;;5053361;28;20037;-45
2021/06/18 08:47:21;;;;;;;1.00;0.63;;;;;;;;;;5027517;28;20029;-43
2021/06/18 08:49:47;;;;;;;0.95;0.60;;;;;;;;;;5043516;28;20037;-44
2021/06/18 08:52:13;;;;;;;1.15;0.60;;;;;;;;;;5017819;28;20033;-44
2021/06/18 08:54:43;;;;;;;0.93;0.60;;;;;;;;;;5031289;28;20033;-45
2021/06/18 08:57:14;;;;;;;1.63;0.82;;;;;;;;;;5025405;28;20116;-48
2021/06/18 08:59:40;;;;;;;1.33;0.80;;;;;;;;;;5023780;28;20534;-44
2021/06/18 09:02:07;;;;;;;1.30;0.60;;;;;;;;;;5038294;28;20053;-44
2021/06/18 09:04:33;;;;;;;0.67;0.50;;;;;;;;;;5039509;28;20029;-44
2021/06/18 09:07:00;;;;;;;1.30;0.70;;;;;;;;;;5038709;28;20017;-45
2021/06/18 09:09:26;;;;;;;;;;;;;;;;;;5025487;28;20029;-45
2021/06/18 09:11:54;;;;;;;1.55;0.60;;;;;;;;;;5029807;28;20105;-45
2021/06/18 09:14:20;;;;;;;1.33;0.60;;;;;;;;;;5041652;28;20040;-44
2021/06/18 09:17:06;;;;;;;0.63;0.40;;;;;;;;;;5046126;28;20423;-45
2021/06/18 09:19:33;;;;;;;0.80;0.50;;;;;;;;;;5033840;28;20103;-44
2021/06/18 09:21:59;;;;;;;;;;;;;;;;;;5050913;28;20361;-44
2021/06/18 09:24:30;;;;;;;0.77;0.47;;;;;;;;;;5049865;28;19959;-44
2021/06/18 09:26:56;;;;;;;0.90;0.50;;;;;;;;;;5051851;28;20052;-44
2021/06/18 09:29:25;;;;;;;1.05;0.60;;;;;;;;;;5032997;28;20080;-43
2021/06/18 09:31:54;;;;;;;0.85;0.50;;;;;;;;;;5045155;28;20037;-45
2021/06/18 09:34:29;;;;;;;0.80;0.50;;;;;;;;;;5036559;28;20025;-43
2021/06/18 09:37:15;;;;;;;0.85;0.60;;;;;;;;;;5051107;28;20063;-44
2021/06/18 09:39:56;;;;;;;1.30;0.43;;;;;;;;;;5050572;28;20036;-44
2021/06/18 09:42:24;;;;;;;0.85;0.40;;;;;;;;;;5032629;28;20017;-45
2021/06/18 09:45:09;;;;;;;0.65;0.38;;;;;;;;;;5033377;28;20048;-45
2021/06/18 09:47:35;;;;;;;0.82;0.55;;;;;;;;;;5038709;28;20029;-43
2021/06/18 09:50:02;;;;;;;1.10;0.73;;;;;;;;;;5023045;28;20037;-44
2021/06/18 09:52:28;;;;;;;0.68;0.50;;;;;;;;;;5048135;28;20033;-44
2021/06/18 09:54:55;;;;;;;0.80;0.57;;;;;;;;;;5051202;28;20742;-44
2021/06/18 09:57:25;;;;;;;0.75;0.50;;;;;;;;;;5037851;28;20037;-44
2021/06/18 09:59:59;;;;;;;0.85;0.60;;;;;;;;;;5050508;28;20378;-44
2021/06/18 10:02:38;;;;;;;0.90;0.50;;;;;;;;;;5050522;28;20104;-43
2021/06/18 10:05:14;;;;;;;1.10;0.60;;;;;;;;;;5048296;28;20061;-43
2021/06/18 10:07:41;;;;;;;1.00;0.50;;;;;;;;;;5045903;28;20063;-44
2021/06/18 10:10:09;;;;;;;0.63;0.50;;;;;;;;;;5049615;28;20052;-42
2021/06/18 10:12:37;;;;;;;1.10;0.63;;;;;;;;;;5050536;28;20025;-43
2021/06/18 10:15:06;;;;;;;0.70;0.50;;;;;;;;;;5032100;28;20139;-43
2021/06/18 10:17:35;;;;;;;1.00;0.60;;;;;;;;;;5031486;28;20501;-42
2021/06/18 10:20:03;;;;;;;1.15;0.73;;;;;;;;;;5020923;28;20025;-43
2021/06/18 10:22:31;;;;;;;1.80;1.40;;;;;;;;;;5021450;28;20036;-43
2021/06/18 10:25:04;;;;;;;1.85;1.52;;;;;;;;;;5043542;28;20053;-43
2021/06/18 10:27:35;;;;;;;1.88;1.67;;;;;;;;;;5038636;28;20029;-43
2021/06/18 10:30:20;;;;;;;2.03;1.75;;;;;;;;;;5037457;28;20405;-43
2021/06/18 10:32:46;;;;;;;2.13;1.67;;;;;;;;;;5044686;28;20426;-44
2021/06/18 10:35:32;;;;;;;2.30;1.70;;;;;;;;;;5040827;28;20052;-43
2021/06/18 10:37:59;;;;;;;2.25;1.65;;;;;;;;;;5031773;28;20488;-45
2021/06/18 10:40:42;;;;;;;3.13;2.35;;;;;;;;;;5044306;28;20047;-44
2021/06/18 10:43:09;;;;;;;2.58;1.90;;;;;;;;;;5039254;28;20088;-43
2021/06/18 10:45:35;;;;;;;;;;;;;;;;;;5039757;28;20056;-40
2021/06/18 10:48:02;;;;;;;2.70;1.75;;;;;;;;;;5047738;28;20377;-41
2021/06/18 10:50:47;;;;;;;4.40;2.30;;;;;;;;;;5026382;28;20080;-41
2021/06/18 10:53:20;;;;;;;2.78;1.75;;;;;;;;;;5038680;28;20116;-40
2021/06/18 10:55:50;;;;;;;3.13;2.03;;;;;;;;;;5040254;28;20150;-43
2021/06/18 10:58:16;;;;;;;2.08;1.52;;;;;;;;;;5049458;28;20028;-41
2021/06/18 11:00:42;;;;;;;3.08;1.90;;;;;;;;;;5049553;28;20031;-41
2021/06/18 11:03:08;;;;;;;2.42;1.90;;;;;;;;;;5049260;28;20430;-42
2021/06/18 11:05:37;;;;;;;2.72;1.90;;;;;;;;;;5035349;28;20048;-45
2021/06/18 11:08:26;;;;;;;2.60;1.83;;;;;;;;;;5040994;28;20013;-41
2021/06/18 11:10:57;;;;;;;2.25;1.80;;;;;;;;;;5020562;28;20083;-47
2021/06/18 11:13:24;;;;;;;3.90;1.80;;;;;;;;;;5031460;28;20021;-41
2021/06/18 11:15:50;;;;;;;2.33;1.27;;;;;;;;;;5049227;28;20032;-43
2021/06/18 11:18:18;;;;;;;2.87;1.40;;;;;;;;;;5049577;28;20024;-44
2021/06/18 11:20:49;;;;;;;1.85;1.40;;;;;;;;;;5031244;28;20473;-42
2021/06/18 11:23:22;;;;;;;2.50;1.30;;;;;;;;;;5030074;28;20062;-42
2021/06/18 11:25:48;;;;;;;1.65;1.20;;;;;;;;;;5031126;28;20029;-42
2021/06/18 11:31:04;;;;;;;1.60;1.20;;;;;;;;;;5045096;28;20501;-43
2021/06/18 11:33:44;;;;;;;3.55;1.40;;;;;;;;;;5052040;28;20054;-41
2021/06/18 11:36:14;;;;;;;2.38;1.17;;;;;;;;;;5030281;28;20188;-42
2021/06/18 11:38:41;;;;;;;3.55;1.25;;;;;;;;;;5029171;28;20046;-42
2021/06/18 11:41:11;;;;;;;1.40;1.00;;;;;;;;;;5038700;28;20064;-43
2021/06/18 11:43:41;;;;;;;1.85;1.20;;;;;;;;;;5047253;28;20033;-43
2021/06/18 11:46:10;;;;;;;1.73;0.90;;;;;;;;;;5023358;28;20072;-42
2021/06/18 11:48:37;;;;;;;2.10;1.17;;;;;;;;;;5017435;28;20505;-42
2021/06/18 11:51:04;;;;;;;1.80;1.00;;;;;;;;;;5037712;28;20045;-43
2021/06/18 11:53:37;;;;;;;2.42;1.10;;;;;;;;;;5043741;28;20465;-42
2021/06/18 11:56:05;;;;;;;2.33;1.17;;;;;;;;;;5050494;28;20453;-42
2021/06/18 11:58:35;;;;;;;3.55;1.30;;;;;;;;;;5040565;28;20029;-42
2021/06/18 12:01:14;;;;;;;2.17;1.15;;;;;;;;;;5021472;28;20069;-43
2021/06/18 12:03:42;;;;;;;4.15;0.90;;;;;;;;;;5045035;28;20339;-44
2021/06/18 12:06:14;;;;;;;1.40;0.77;;;;;;;;;;5023352;28;20109;-41
2021/06/18 12:08:40;;;;;;;1.67;1.05;;;;;;;;;;5041298;28;20105;-41
2021/06/18 12:11:16;;;;;;;2.07;1.13;;;;;;;;;;5022640;28;20025;-42
2021/06/18 12:13:52;;;;;;;2.67;1.30;;;;;;;;;;5041974;28;20401;-41
2021/06/18 12:16:19;;;;;;;2.40;1.10;;;;;;;;;;5024467;28;20049;-45
2021/06/18 12:18:45;;;;;;;1.85;1.00;;;;;;;;;;5040970;28;20105;-44
2021/06/18 12:21:14;;;;;;;1.70;0.95;;;;;;;;;;5026479;28;20079;-41
2021/06/18 12:23:43;;;;;;;2.00;1.00;;;;;;;;;;5042013;28;20029;-41
2021/06/18 12:26:09;;;;;;;1.98;1.08;;;;;;;;;;5025217;28;20025;-41
2021/06/18 12:28:37;;;;;;;2.25;1.10;;;;;;;;;;5043956;28;20430;-42
2021/06/18 12:31:03;;;;;;;2.30;1.40;;;;;;;;;;5025988;28;20087;-42
2021/06/18 12:33:29;;;;;;;1.73;1.20;;;;;;;;;;5039064;28;20470;-44
2021/06/18 12:35:59;;;;;;;2.22;1.50;;;;;;;;;;5040130;28;20434;-45
2021/06/18 12:38:25;;;;;;;2.85;1.88;;;;;;;;;;5036914;28;20111;-41
2021/06/18 12:40:51;;;;;;;3.78;1.58;;;;;;;;;;5038914;28;20108;-42
2021/06/18 12:43:18;;;;;;;5.28;2.20;;;;;;;;;;5029476;28;20076;-44
2021/06/18 12:45:46;;;;;;;5.10;2.47;;;;;;;;;;5032916;28;20090;-41
2021/06/18 12:48:15;;;;;;;4.05;2.58;;;;;;;;;;5033377;28;20025;-42
2021/06/18 12:50:42;;;;;;;5.25;2.88;;;;;;;;;;5028042;28;20057;-42
2021/06/18 12:53:09;;;;;;;5.03;2.95;;;;;;;;;;5022364;28;20045;-45
2021/06/18 12:55:35;;;;;;;;;;;;;;;;;;5020146;28;20398;-44
2021/06/18 12:58:04;;;;;;;4.80;2.70;;;;;;;;;;5024540;28;19917;-44
2021/06/18 13:00:30;;;;;;;3.15;2.25;;;;;;;;;;5021623;28;20064;-44
2021/06/18 13:02:57;;;;;;;4.50;2.40;;;;;;;;;;5017311;28;20437;-43
2021/06/18 13:05:23;;;;;;;3.25;1.95;;;;;;;;;;5019996;28;20083;-42
2021/06/18 13:07:55;;;;;;;4.32;2.05;;;;;;;;;;5024543;28;20022;-51
2021/06/18 13:10:21;;;;;;;3.63;1.90;;;;;;;;;;5013918;28;20480;-44
2021/06/18 13:12:55;;;;;;;3.10;2.13;;;;;;;;;;5019852;28;20029;-43
2021/06/18 13:15:29;;;;;;;3.40;2.20;;;;;;;;;;5019147;28;20059;-46
2021/06/18 13:17:56;;;;;;;3.88;2.38;;;;;;;;;;5020263;28;20483;-43
2021/06/18 13:20:29;;;;;;;3.03;2.13;;;;;;;;;;5021880;28;20504;-43
2021/06/18 13:22:55;;;;;;;3.53;2.00;;;;;;;;;;5016263;28;20033;-42
2021/06/18 13:25:27;;;;;;;4.82;2.70;;;;;;;;;;5020246;28;20484;-44
2021/06/18 13:27:53;;;;;;;5.25;3.70;;;;;;;;;;5017202;28;20470;-46
2021/06/18 13:30:19;;;;;;;7.20;4.47;;;;;;;;;;5020018;28;20017;-43
2021/06/18 13:32:55;;;;;;;6.75;4.38;;;;;;;;;;5019079;28;20032;-44
2021/06/18 13:35:21;;;;;;;5.88;3.88;;;;;;;;;;5022316;28;20079;-45
2021/06/18 13:37:58;;;;;;;7.63;4.45;;;;;;;;;;5018118;28;20446;-47
2021/06/18 13:40:33;;;;;;;6.70;3.60;;;;;;;;;;5019637;28;20065;-43
2021/06/18 13:42:59;;;;;;;7.63;4.70;;;;;;;;;;5019406;28;20044;-43
2021/06/18 13:45:25;;;;;;;6.70;4.50;;;;;;;;;;5020926;28;20037;-45
2021/06/18 13:47:56;;;;;;;5.83;4.60;;;;;;;;;;5020829;28;20043;-45
2021/06/18 13:50:22;;;;;;;7.28;4.40;;;;;;;;;;5020030;28;20045;-44
2021/06/18 13:52:50;;;;;;;8.35;4.72;;;;;;;;;;5021038;28;20043;-43
2021/06/18 13:55:17;;;;;;;7.13;4.10;;;;;;;;;;5008297;28;20033;-44
2021/06/18 13:57:43;;;;;;;7.97;4.78;;;;;;;;;;5019232;28;20029;-43
2021/06/18 14:00:09;;;;;;;5.63;4.10;;;;;;;;;;5023168;28;20056;-45
2021/06/18 14:02:36;;;;;;;8.18;5.15;;;;;;;;;;5023118;28;20025;-43
2021/06/18 14:05:02;;;;;;;6.28;4.95;;;;;;;;;;5017783;28;20142;-43
2021/06/18 14:07:28;;;;;;;6.85;4.22;;;;;;;;;;5020917;28;20500;-43
2021/06/18 14:09:54;;;;;;;7.57;4.20;;;;;;;;;;5023688;28;20053;-44
2021/06/18 14:12:20;;;;;;;8.10;4.28;;;;;;;;;;5022182;28;20501;-46
2021/06/18 14:15:01;;;;;;;6.20;4.90;;;;;;;;;;5016623;28;20025;-43
2021/06/18 14:17:31;;;;;;;6.22;4.07;;;;;;;;;;5020907;28;20460;-42
2021/06/18 14:19:58;;;;;;;9.60;4.20;;;;;;;;;;5024781;28;20105;-42
2021/06/18 14:22:25;;;;;;;5.63;4.05;;;;;;;;;;5019251;28;20033;-42
2021/06/18 14:24:51;;;;;;;7.10;3.85;;;;;;;;;;5023869;28;20262;-44
2021/06/18 14:27:17;;;;;;;5.97;4.05;;;;;;;;;;5021298;28;20026;-42
2021/06/18 14:29:43;;;;;;;5.38;3.95;;;;;;;;;;5015470;28;20029;-41
2021/06/18 14:32:11;;;;;;;7.23;3.93;;;;;;;;;;5019919;28;20430;-44
2021/06/18 14:34:37;;;;;;;6.85;3.97;;;;;;;;;;5018866;28;20093;-44
2021/06/18 14:37:04;;;;;;;6.80;4.03;;;;;;;;;;5021309;28;20037;-44
2021/06/18 14:39:32;;;;;;;5.18;3.40;;;;;;;;;;5018320;28;20065;-41
2021/06/18 14:41:58;;;;;;;5.07;3.75;;;;;;;;;;5018044;28;20042;-42
2021/06/18 14:44:24;;;;;;;5.43;3.17;;;;;;;;;;5021093;28;20033;-43
2021/06/18 14:46:50;;;;;;;4.55;3.35;;;;;;;;;;5015182;28;20525;-43
2021/06/18 14:49:17;;;;;;;6.13;3.40;;;;;;;;;;5019637;28;20044;-44
2021/06/18 14:51:44;;;;;;;4.60;3.05;;;;;;;;;;5016421;28;20042;-42
2021/06/18 14:54:11;;;;;;;4.13;3.40;;;;;;;;;;5024647;28;20033;-47
2021/06/18 14:56:41;;;;;;;4.75;3.03;;;;;;;;;;5027414;28;20029;-43
2021/06/18 14:59:09;;;;;;;5.05;3.13;;;;;;;;;;5027637;28;20071;-41
2021/06/18 15:01:38;;;;;;;4.57;3.08;;;;;;;;;;5027477;28;20152;-46
2021/06/18 15:04:10;;;;;;;5.30;2.90;;;;;;;;;;5027241;28;20029;-44
2021/06/18 15:06:36;;;;;;;5.47;3.03;;;;;;;;;;5026968;28;20109;-46
2021/06/18 15:09:05;;;;;;;3.63;2.83;;;;;;;;;;5031070;28;20124;-43
2021/06/18 15:11:33;;;;;;;4.20;2.60;;;;;;;;;;5027413;28;20148;-42
2021/06/18 15:14:02;;;;;;;4.80;2.58;;;;;;;;;;5027182;28;20103;-42
2021/06/18 15:16:29;;;;;;;5.50;2.78;;;;;;;;;;5029555;28;20048;-41
2021/06/18 15:18:55;;;;;;;;;;;;;;;;;;5028756;28;20394;-42
2021/06/18 15:21:24;;;;;;;3.22;2.42;;;;;;;;;;5029048;28;19913;-42
2021/06/18 15:23:51;;;;;;;4.57;2.65;;;;;;;;;;5026873;28;20036;-41
2021/06/18 15:26:18;;;;;;;4.25;2.35;;;;;;;;;;5029615;28;20021;-42
2021/06/18 15:28:45;;;;;;;3.70;2.80;;;;;;;;;;5028163;28;20026;-42
2021/06/18 15:31:12;;;;;;;3.85;2.47;;;;;;;;;;5026427;28;20124;-41
2021/06/18 15:33:38;;;;;;;4.68;2.50;;;;;;;;;;5023546;28;20025;-42
2021/06/18 15:36:04;;;;;;;4.32;2.20;;;;;;;;;;5028726;28;20021;-43
2021/06/18 15:38:30;;;;;;;3.15;2.00;;;;;;;;;;5028601;28;20121;-41
2021/06/18 15:40:56;;;;;;;3.90;1.95;;;;;;;;;;5029350;28;20420;-45
2021/06/18 15:43:22;;;;;;;3.60;1.93;;;;;;;;;;5028251;28;20028;-44
2021/06/18 15:45:51;;;;;;;3.22;2.10;;;;;;;;;;5028691;28;20045;-41
2021/06/18 15:48:17;;;;;;;2.85;2.10;;;;;;;;;;5026919;28;20025;-45
2021/06/18 15:50:43;;;;;;;3.65;2.20;;;;;;;;;;5019309;28;20045;-40
2021/06/18 15:53:09;;;;;;;2.93;2.10;;;;;;;;;;5008383;28;20179;-42
2021/06/18 15:55:35;;;;;;;2.87;1.77;;;;;;;;;;5009070;28;20030;-42
2021/06/18 15:58:01;;;;;;;2.45;1.70;;;;;;;;;;5006775;28;20026;-41
2021/06/18 16:00:27;;;;;;;2.75;1.90;;;;;;;;;;5008686;28;20022;-41
2021/06/18 16:02:56;;;;;;;3.93;1.80;;;;;;;;;;5000102;28;20014;-55
2021/06/18 16:05:22;;;;;;;2.35;1.90;;;;;;;;;;4997154;28;20309;-42
2021/06/18 16:07:48;;;;;;;3.10;1.90;;;;;;;;;;5000176;28;20442;-45
2021/06/18 16:10:15;;;;;;;4.07;1.67;;;;;;;;;;4996483;28;20412;-44
2021/06/18 16:12:41;;;;;;;2.30;1.77;;;;;;;;;;4996367;28;20105;-42
2021/06/18 16:15:07;;;;;;;2.40;1.50;;;;;;;;;;4995640;28;20092;-47
2021/06/18 16:17:34;;;;;;;3.13;1.77;;;;;;;;;;4998149;28;20351;-42
2021/06/18 16:20:00;;;;;;;2.03;1.40;;;;;;;;;;4997488;28;20041;-42
2021/06/18 16:22:26;;;;;;;2.70;1.65;;;;;;;;;;4994102;28;20179;-45
2021/06/18 16:24:52;;;;;;;2.87;1.83;;;;;;;;;;5002046;28;20037;-42
2021/06/18 16:27:19;;;;;;;2.83;1.47;;;;;;;;;;4996875;28;20065;-42
2021/06/18 16:29:46;;;;;;;3.17;1.67;;;;;;;;;;4994185;28;20018;-45
2021/06/18 16:32:12;;;;;;;2.60;1.58;;;;;;;;;;4998147;28;20042;-43
2021/06/18 16:34:38;;;;;;;2.50;1.87;;;;;;;;;;4998678;28;20129;-44
2021/06/18 16:37:04;;;;;;;3.33;1.53;;;;;;;;;;4994498;28;20411;-43
2021/06/18 16:39:30;;;;;;;2.55;1.83;;;;;;;;;;5000079;28;20115;-41
2021/06/18 16:41:57;;;;;;;2.60;1.60;;;;;;;;;;4997921;28;20137;-45
2021/06/18 16:44:23;;;;;;;2.08;1.52;;;;;;;;;;5002932;28;20121;-42
2021/06/18 16:46:49;;;;;;;4.28;1.92;;;;;;;;;;4998919;28;20040;-42
2021/06/18 16:49:15;;;;;;;3.03;1.90;;;;;;;;;;5003112;28;20076;-40
2021/06/18 16:51:41;;;;;;;3.65;2.30;;;;;;;;;;5043995;28;20160;-40
2021/06/18 16:54:10;;;;;;;3.07;1.80;;;;;;;;;;5033026;28;20113;-42
2021/06/18 16:56:39;;;;;;;3.28;1.88;;;;;;;;;;5032850;28;20028;-41
2021/06/18 16:59:09;;;;;;;3.83;2.17;;;;;;;;;;5051903;28;20021;-41
2021/06/18 17:01:36;;;;;;;5.93;2.35;;;;;;;;;;5052250;28;20108;-41
2021/06/18 17:04:02;;;;;;;;;;;;;;;;;;5033413;28;20068;-40
2021/06/18 17:06:31;;;;;;;3.20;2.20;;;;;;;;;;5052360;28;19905;-42
2021/06/18 17:08:57;;;;;;;2.78;1.80;;;;;;;;;;5048598;28;20272;-40
2021/06/18 17:11:24;;;;;;;2.40;1.97;;;;;;;;;;5023859;28;20021;-40
2021/06/18 17:13:51;;;;;;;;;;;;;;;;;;5027062;28;20146;-41
2021/06/18 17:16:17;;;;;;;3.17;1.90;;;;;;;;;;5040061;28;20369;-41
2021/06/18 17:18:44;;;;;;;2.80;1.83;;;;;;;;;;5041101;28;20024;-41
2021/06/18 17:21:11;;;;;;;2.28;1.70;;;;;;;;;;5025358;28;20036;-44
2021/06/18 17:23:38;;;;;;;2.70;2.05;;;;;;;;;;5019817;28;20121;-40
2021/06/18 17:26:04;;;;;;;3.13;2.03;;;;;;;;;;5023632;28;20029;-41
2021/06/18 17:28:31;;;;;;;3.30;1.95;;;;;;;;;;5040587;28;20029;-41
2021/06/18 17:30:57;;;;;;;3.13;2.17;;;;;;;;;;5041881;28;20104;-41
2021/06/18 17:33:23;;;;;;;2.60;1.95;;;;;;;;;;5025218;28;20052;-40
2021/06/18 17:35:50;;;;;;;2.65;1.90;;;;;;;;;;5038899;28;20025;-40
2021/06/18 17:38:16;;;;;;;2.88;1.85;;;;;;;;;;5019050;28;20036;-42
2021/06/18 17:40:42;;;;;;;2.50;1.50;;;;;;;;;;5042912;28;20032;-42
2021/06/18 17:43:08;;;;;;;2.17;1.50;;;;;;;;;;5038178;28;20470;-41
2021/06/18 17:45:37;;;;;;;3.15;1.50;;;;;;;;;;5024507;28;20068;-42
2021/06/18 17:48:06;;;;;;;2.60;1.75;;;;;;;;;;5040626;28;20025;-42
2021/06/18 17:50:32;;;;;;;2.40;1.75;;;;;;;;;;5020057;28;20400;-42
2021/06/18 17:53:01;;;;;;;3.00;1.98;;;;;;;;;;5037165;28;20033;-42
2021/06/18 17:55:27;;;;;;;2.75;1.67;;;;;;;;;;5043563;28;20021;-45
2021/06/18 17:57:53;;;;;;;3.07;1.60;;;;;;;;;;5039214;28;20033;-41
2021/06/18 18:00:19;;;;;;;1.88;1.50;;;;;;;;;;5024868;28;20040;-41
2021/06/18 18:02:45;;;;;;;3.03;2.13;;;;;;;;;;5041220;28;20047;-42
2021/06/18 18:05:12;;;;;;;3.28;1.80;;;;;;;;;;5039293;28;20049;-41
2021/06/18 18:07:39;;;;;;;2.88;1.58;;;;;;;;;;5030957;28;20052;-42
2021/06/18 18:10:05;;;;;;;2.63;1.65;;;;;;;;;;5051057;28;20021;-41
2021/06/18 18:12:31;;;;;;;2.63;1.30;;;;;;;;;;5050382;28;20132;-41
2021/06/18 18:14:58;;;;;;;2.50;1.40;;;;;;;;;;5050368;28;20445;-41
2021/06/18 18:17:24;;;;;;;2.75;1.67;;;;;;;;;;5050584;28;20453;-41
2021/06/18 18:19:50;;;;;;;1.70;1.42;;;;;;;;;;5032594;28;20074;-42
2021/06/18 18:22:16;;;;;;;3.60;1.60;;;;;;;;;;5050484;28;20077;-41
2021/06/18 18:24:44;;;;;;;2.63;1.60;;;;;;;;;;5050728;28;20202;-41
2021/06/18 18:27:10;;;;;;;2.75;1.42;;;;;;;;;;5049482;28;20017;-41
2021/06/18 18:29:36;;;;;;;3.30;1.50;;;;;;;;;;5050935;28;20025;-41
2021/06/18 18:32:03;;;;;;;2.30;1.30;;;;;;;;;;5049414;28;20087;-42
2021/06/18 18:34:29;;;;;;;;;;;;;;;;;;5050987;28;20280;-42
2021/06/18 18:36:56;;;;;;;2.60;1.40;;;;;;;;;;5049569;28;19940;-45
2021/06/18 18:39:23;;;;;;;2.88;1.20;;;;;;;;;;5050317;28;20025;-42
2021/06/18 18:41:50;;;;;;;2.65;1.27;;;;;;;;;;5049339;28;20044;-42
2021/06/18 18:44:16;;;;;;;1.58;1.23;;;;;;;;;;5050291;28;20342;-41
2021/06/18 18:46:42;;;;;;;2.03;1.30;;;;;;;;;;5050288;28;20025;-41
2021/06/18 18:49:08;;;;;;;1.80;1.30;;;;;;;;;;5050284;28;20481;-43
2021/06/18 18:51:34;;;;;;;2.87;2.10;;;;;;;;;;5050350;28;20127;-42
2021/06/18 18:54:03;;;;;;;4.47;2.47;;;;;;;;;;5050668;28;20029;-42
2021/06/18 18:56:29;;;;;;;2.88;1.98;;;;;;;;;;5039458;28;20067;-42
2021/06/18 18:59:09;;;;;;;3.30;2.53;;;;;;;;;;5049829;28;20017;-41
2021/06/18 19:01:37;;;;;;;4.65;2.20;;;;;;;;;;5049004;28;20116;-41
2021/06/18 19:04:03;;;;;;;4.45;2.38;;;;;;;;;;5044713;28;20402;-41
2021/06/18 19:06:30;;;;;;;3.40;2.40;;;;;;;;;;5046306;28;20551;-42
2021/06/18 19:08:56;;;;;;;3.38;2.15;;;;;;;;;;5050134;28;20025;-42
2021/06/18 19:11:22;;;;;;;4.38;2.63;;;;;;;;;;5032124;28;20438;-40
2021/06/18 19:13:51;;;;;;;4.03;2.30;;;;;;;;;;5049570;28;20109;-41
2021/06/18 19:16:22;;;;;;;2.88;2.13;;;;;;;;;;5049382;28;20048;-41
2021/06/18 19:18:48;;;;;;;3.60;2.47;;;;;;;;;;5049852;28;20025;-40
2021/06/18 19:21:17;;;;;;;3.85;2.40;;;;;;;;;;5049915;28;20040;-41
2021/06/18 19:23:44;;;;;;;4.28;2.20;;;;;;;;;;5031520;28;20036;-41
2021/06/18 19:26:10;;;;;;;3.17;2.28;;;;;;;;;;5044963;28;20418;-41
2021/06/18 19:28:36;;;;;;;3.17;2.10;;;;;;;;;;5041113;28;20028;-41
2021/06/18 19:31:02;;;;;;;3.03;2.22;;;;;;;;;;5049312;28;20037;-42
2021/06/18 19:33:31;;;;;;;3.00;2.13;;;;;;;;;;5048485;28;20435;-39
2021/06/18 19:35:59;;;;;;;2.40;1.75;;;;;;;;;;5031064;28;20078;-42
2021/06/18 19:38:25;;;;;;;2.10;1.63;;;;;;;;;;5049568;28;20116;-39
2021/06/18 19:40:54;;;;;;;3.53;2.05;;;;;;;;;;5036395;28;20036;-41
2021/06/18 19:43:21;;;;;;;3.78;2.20;;;;;;;;;;5049683;28;20032;-42
2021/06/18 19:45:47;;;;;;;;;;;;;;;;;;5028815;28;20159;-41
2021/06/18 19:48:13;;;;;;;3.77;2.13;;;;;;;;;;5045984;28;19963;-41
2021/06/18 19:50:39;;;;;;;5.30;2.25;;;;;;;;;;5051977;28;20116;-40
2021/06/18 19:53:08;;;;;;;3.03;1.88;;;;;;;;;;5038203;28;20044;-41
2021/06/18 19:55:38;;;;;;;3.95;2.15;;;;;;;;;;5042731;28;20082;-41
2021/06/18 19:58:05;;;;;;;3.75;2.47;;;;;;;;;;5022194;28;20032;-41
2021/06/18 20:00:31;;;;;;;;;;;;;;;;;;5042790;28;20017;-46
2021/06/18 20:02:58;;;;;;;3.85;2.00;;;;;;;;;;5039067;28;19940;-41
2021/06/18 20:05:24;;;;;;;3.88;2.53;;;;;;;;;;5040431;28;20053;-41
2021/06/18 20:07:50;;;;;;;2.50;1.77;;;;;;;;;;5045986;28;20013;-40
2021/06/18 20:10:18;;;;;;;2.90;1.80;;;;;;;;;;5049798;28;20331;-41
2021/06/18 20:12:44;;;;;;;3.35;1.77;;;;;;;;;;5050426;28;20028;-40
2021/06/18 20:15:11;;;;;;;2.83;1.75;;;;;;;;;;5052248;28;20106;-40
2021/06/18 20:17:40;;;;;;;2.50;1.63;;;;;;;;;;5053069;28;20341;-41
2021/06/18 20:20:07;;;;;;;3.10;1.70;;;;;;;;;;5046657;28;20047;-40
2021/06/18 20:22:34;;;;;;;3.42;1.70;;;;;;;;;;5053474;28;20421;-41
2021/06/18 20:25:01;;;;;;;3.13;1.80;;;;;;;;;;5053138;28;20040;-41
2021/06/18 20:27:27;;;;;;;1.98;1.25;;;;;;;;;;5053235;28;20048;-41
2021/06/18 20:29:53;;;;;;;2.50;1.55;;;;;;;;;;5047787;28;20558;-41
2021/06/18 20:32:19;;;;;;;2.00;1.48;;;;;;;;;;5039396;28;20063;-41
2021/06/18 20:34:45;;;;;;;2.30;1.48;;;;;;;;;;5045888;28;20029;-40
2021/06/18 20:37:13;;;;;;;3.10;1.60;;;;;;;;;;5043095;28;20045;-41
2021/06/18 20:39:41;;;;;;;1.83;1.23;;;;;;;;;;5043085;28;20119;-41
2021/06/18 20:42:07;;;;;;;2.05;1.23;;;;;;;;;;5047969;28;20477;-40
2021/06/18 20:44:34;;;;;;;2.70;1.58;;;;;;;;;;5053002;28;20040;-41
2021/06/18 20:47:01;;;;;;;2.47;1.40;;;;;;;;;;5046696;28;20075;-41
2021/06/18 20:49:27;;;;;;;1.83;1.33;;;;;;;;;;5052011;28;20055;-41
2021/06/18 20:51:53;;;;;;;2.00;1.40;;;;;;;;;;5052233;28;20390;-41
2021/06/18 20:54:19;;;;;;;4.80;1.40;;;;;;;;;;5046121;28;20382;-48
2021/06/18 20:56:47;;;;;;;2.10;1.35;;;;;;;;;;5039562;28;20025;-40
2021/06/18 20:59:13;;;;;;;2.33;1.35;;;;;;;;;;5031266;28;20486;-41
2021/06/18 21:01:40;;;;;;;4.50;1.50;;;;;;;;;;5051545;28;20017;-40
2021/06/18 21:04:06;;;;;;;7.82;1.27;;;;;;;;;;5047793;28;20025;-41
2021/06/18 21:06:32;;;;;;;2.88;1.33;;;;;;;;;;5034413;28;20035;-41
2021/06/18 21:08:58;;;;;;;2.25;1.20;;;;;;;;;;5052098;28;20013;-41
